sensor_id;sensor_type;location;lat;lon;timestamp;P1;durP1;ratioP1;P2;durP2;ratioP2
77246;SDS011;66279;42.820;23.374;2023-04-19T04:30:37;3.38;;;1.67;;
77246;SDS011;66279;42.820;23.374;2023-04-19T04:34:03;3.40;;;1.60;;
77246;SDS011;66279;42.820;23.374;2023-04-19T04:37:16;3.35;;;1.80;;
77246;SDS011;66279;42.820;23.374;2023-04-19T04:40:24;8.73;;;3.97;;
77246;SDS011;66279;42.820;23.374;2023-04-19T04:43:57;13.77;;;6.43;;
77246;SDS011;66279;42.820;23.374;2023-04-19T04:46:45;7.15;;;2.92;;
77246;SDS011;66279;42.820;23.374;2023-04-19T08:10:41;4.95;;;2.58;;
77246;SDS011;66279;42.820;23.374;2023-04-19T08:13:07;4.80;;;1.98;;
77246;SDS011;66279;42.820;23.374;2023-04-19T08:15:33;5.38;;;2.47;;
77246;SDS011;66279;42.820;23.374;2023-04-19T08:17:59;6.00;;;3.55;;
77246;SDS011;66279;42.820;23.374;2023-04-19T08:20:24;10.13;;;2.83;;
77246;SDS011;66279;42.820;23.374;2023-04-19T08:22:50;7.45;;;3.38;;
77246;SDS011;66279;42.820;23.374;2023-04-19T08:25:18;6.25;;;3.08;;
77246;SDS011;66279;42.820;23.374;2023-04-19T08:27:43;4.32;;;2.53;;
77246;SDS011;66279;42.820;23.374;2023-04-19T08:30:09;6.07;;;3.28;;
77246;SDS011;66279;42.820;23.374;2023-04-19T08:32:35;6.47;;;3.47;;
77246;SDS011;66279;42.820;23.374;2023-04-19T08:35:01;7.20;;;3.03;;
77246;SDS011;66279;42.820;23.374;2023-04-19T08:37:27;9.60;;;4.03;;
77246;SDS011;66279;42.820;23.374;2023-04-19T08:39:53;5.60;;;3.38;;
77246;SDS011;66279;42.820;23.374;2023-04-19T08:42:18;7.20;;;3.13;;
77246;SDS011;66279;42.820;23.374;2023-04-19T08:44:44;5.82;;;2.50;;
77246;SDS011;66279;42.820;23.374;2023-04-19T08:47:11;7.32;;;3.67;;
77246;SDS011;66279;42.820;23.374;2023-04-19T08:49:40;6.05;;;2.90;;
77246;SDS011;66279;42.820;23.374;2023-04-19T08:52:06;6.18;;;3.00;;
77246;SDS011;66279;42.820;23.374;2023-04-19T08:54:34;4.15;;;2.70;;
77246;SDS011;66279;42.820;23.374;2023-04-19T08:57:00;9.52;;;4.57;;
77246;SDS011;66279;42.820;23.374;2023-04-19T08:59:27;8.95;;;3.95;;
77246;SDS011;66279;42.820;23.374;2023-04-19T09:01:59;7.78;;;2.85;;
77246;SDS011;66279;42.820;23.374;2023-04-19T09:06:50;6.50;;;3.63;;
77246;SDS011;66279;42.820;23.374;2023-04-19T09:12:00;5.43;;;3.03;;
77246;SDS011;66279;42.820;23.374;2023-04-19T09:14:26;5.38;;;2.63;;
77246;SDS011;66279;42.820;23.374;2023-04-19T09:16:53;4.43;;;2.60;;
77246;SDS011;66279;42.820;23.374;2023-04-19T09:19:45;5.75;;;2.30;;
77246;SDS011;66279;42.820;23.374;2023-04-19T09:22:12;5.13;;;2.35;;
77246;SDS011;66279;42.820;23.374;2023-04-19T09:24:38;4.30;;;2.22;;
77246;SDS011;66279;42.820;23.374;2023-04-19T09:27:04;4.93;;;2.50;;
77246;SDS011;66279;42.820;23.374;2023-04-19T09:29:30;7.53;;;2.75;;
77246;SDS011;66279;42.820;23.374;2023-04-19T09:31:58;4.88;;;2.40;;
77246;SDS011;66279;42.820;23.374;2023-04-19T09:34:24;6.45;;;2.88;;
77246;SDS011;66279;42.820;23.374;2023-04-19T09:36:49;4.55;;;2.53;;
77246;SDS011;66279;42.820;23.374;2023-04-19T09:39:30;4.57;;;2.42;;
77246;SDS011;66279;42.820;23.374;2023-04-19T09:41:57;4.78;;;2.53;;
77246;SDS011;66279;42.820;23.374;2023-04-19T09:44:22;7.15;;;2.47;;
77246;SDS011;66279;42.820;23.374;2023-04-19T09:46:48;6.13;;;2.85;;
77246;SDS011;66279;42.820;23.374;2023-04-19T09:49:20;5.38;;;2.25;;
77246;SDS011;66279;42.820;23.374;2023-04-19T09:51:48;7.70;;;2.80;;
77246;SDS011;66279;42.820;23.374;2023-04-19T09:54:14;3.83;;;1.58;;
77246;SDS011;66279;42.820;23.374;2023-04-19T09:56:41;3.50;;;1.90;;
77246;SDS011;66279;42.820;23.374;2023-04-19T09:59:08;5.57;;;3.17;;
77246;SDS011;66279;42.820;23.374;2023-04-19T10:04:19;6.10;;;2.50;;
77246;SDS011;66279;42.820;23.374;2023-04-19T10:06:52;6.93;;;2.45;;
77246;SDS011;66279;42.820;23.374;2023-04-19T10:09:21;4.55;;;2.47;;
77246;SDS011;66279;42.820;23.374;2023-04-19T10:11:48;6.07;;;2.42;;
77246;SDS011;66279;42.820;23.374;2023-04-19T10:14:16;5.55;;;3.03;;
77246;SDS011;66279;42.820;23.374;2023-04-19T10:16:45;7.30;;;3.08;;
77246;SDS011;66279;42.820;23.374;2023-04-19T10:19:12;4.82;;;2.45;;
77246;SDS011;66279;42.820;23.374;2023-04-19T10:21:40;4.95;;;2.30;;
77246;SDS011;66279;42.820;23.374;2023-04-19T10:24:11;5.20;;;2.97;;
77246;SDS011;66279;42.820;23.374;2023-04-19T10:29:53;4.10;;;2.58;;
77246;SDS011;66279;42.820;23.374;2023-04-19T10:32:19;4.07;;;2.38;;
77246;SDS011;66279;42.820;23.374;2023-04-19T10:34:45;4.85;;;2.42;;
77246;SDS011;66279;42.820;23.374;2023-04-19T10:37:14;6.25;;;2.72;;
77246;SDS011;66279;42.820;23.374;2023-04-19T10:39:41;6.10;;;3.00;;
77246;SDS011;66279;42.820;23.374;2023-04-19T10:42:07;8.73;;;3.55;;
77246;SDS011;66279;42.820;23.374;2023-04-19T10:44:33;3.28;;;2.38;;
77246;SDS011;66279;42.820;23.374;2023-04-19T10:46:59;16.02;;;4.18;;
77246;SDS011;66279;42.820;23.374;2023-04-19T10:49:27;3.47;;;2.58;;
77246;SDS011;66279;42.820;23.374;2023-04-19T10:51:53;11.90;;;4.70;;
77246;SDS011;66279;42.820;23.374;2023-04-19T10:54:31;10.65;;;4.20;;
77246;SDS011;66279;42.820;23.374;2023-04-19T10:56:59;5.28;;;2.10;;
77246;SDS011;66279;42.820;23.374;2023-04-19T10:59:28;5.25;;;2.40;;
77246;SDS011;66279;42.820;23.374;2023-04-19T11:01:55;4.47;;;2.42;;
77246;SDS011;66279;42.820;23.374;2023-04-19T11:07:00;12.13;;;5.47;;
77246;SDS011;66279;42.820;23.374;2023-04-19T11:09:31;4.38;;;2.63;;
77246;SDS011;66279;42.820;23.374;2023-04-19T11:12:01;5.55;;;3.20;;
77246;SDS011;66279;42.820;23.374;2023-04-19T11:14:34;5.88;;;2.78;;
77246;SDS011;66279;42.820;23.374;2023-04-19T11:17:16;6.85;;;3.58;;
77246;SDS011;66279;42.820;23.374;2023-04-19T11:19:53;6.32;;;3.08;;
77246;SDS011;66279;42.820;23.374;2023-04-19T11:27:42;11.25;;;5.65;;
77246;SDS011;66279;42.820;23.374;2023-04-19T11:30:15;11.65;;;5.05;;
77246;SDS011;66279;42.820;23.374;2023-04-19T11:32:47;15.88;;;5.25;;
77246;SDS011;66279;42.820;23.374;2023-04-19T11:35:17;19.05;;;7.93;;
77246;SDS011;66279;42.820;23.374;2023-04-19T11:37:44;46.67;;;16.80;;
77246;SDS011;66279;42.820;23.374;2023-04-19T11:40:13;10.60;;;4.25;;
77246;SDS011;66279;42.820;23.374;2023-04-19T11:42:40;8.93;;;3.83;;
77246;SDS011;66279;42.820;23.374;2023-04-19T11:45:06;6.95;;;3.92;;
77246;SDS011;66279;42.820;23.374;2023-04-19T11:47:33;6.70;;;3.03;;
77246;SDS011;66279;42.820;23.374;2023-04-19T11:50:29;4.55;;;1.83;;
77246;SDS011;66279;42.820;23.374;2023-04-19T11:55:52;7.65;;;4.25;;
77246;SDS011;66279;42.820;23.374;2023-04-19T11:58:23;5.03;;;2.67;;
77246;SDS011;66279;42.820;23.374;2023-04-19T12:00:49;3.60;;;1.98;;
77246;SDS011;66279;42.820;23.374;2023-04-19T12:03:15;3.72;;;1.95;;
77246;SDS011;66279;42.820;23.374;2023-04-19T12:06:21;4.70;;;2.13;;
77246;SDS011;66279;42.820;23.374;2023-04-19T12:08:41;2.90;;;1.80;;
77246;SDS011;66279;42.820;23.374;2023-04-19T12:11:08;3.78;;;1.90;;
77246;SDS011;66279;42.820;23.374;2023-04-19T12:13:34;5.22;;;2.60;;
77246;SDS011;66279;42.820;23.374;2023-04-19T12:16:01;8.00;;;2.50;;
77246;SDS011;66279;42.820;23.374;2023-04-19T12:18:27;7.68;;;3.20;;
77246;SDS011;66279;42.820;23.374;2023-04-19T12:21:10;22.23;;;11.40;;
77246;SDS011;66279;42.820;23.374;2023-04-19T12:23:47;7.18;;;3.65;;
77246;SDS011;66279;42.820;23.374;2023-04-19T12:26:13;16.58;;;8.07;;
77246;SDS011;66279;42.820;23.374;2023-04-19T12:28:39;14.75;;;5.00;;
77246;SDS011;66279;42.820;23.374;2023-04-19T12:31:04;16.05;;;5.85;;
77246;SDS011;66279;42.820;23.374;2023-04-19T12:33:30;32.90;;;12.95;;
77246;SDS011;66279;42.820;23.374;2023-04-19T12:35:55;8.43;;;4.50;;
77246;SDS011;66279;42.820;23.374;2023-04-19T12:38:21;6.20;;;3.30;;
77246;SDS011;66279;42.820;23.374;2023-04-19T12:40:46;9.00;;;4.63;;
77246;SDS011;66279;42.820;23.374;2023-04-19T12:43:12;4.15;;;1.95;;
77246;SDS011;66279;42.820;23.374;2023-04-19T12:45:37;7.78;;;3.30;;
77246;SDS011;66279;42.820;23.374;2023-04-19T12:48:03;6.60;;;3.05;;
77246;SDS011;66279;42.820;23.374;2023-04-19T12:50:29;4.40;;;2.60;;
77246;SDS011;66279;42.820;23.374;2023-04-19T12:52:54;4.40;;;1.90;;
77246;SDS011;66279;42.820;23.374;2023-04-19T12:55:19;4.57;;;2.28;;
77246;SDS011;66279;42.820;23.374;2023-04-19T12:57:46;4.20;;;1.90;;
77246;SDS011;66279;42.820;23.374;2023-04-19T13:00:12;6.70;;;3.00;;
77246;SDS011;66279;42.820;23.374;2023-04-19T13:02:37;8.57;;;5.03;;
77246;SDS011;66279;42.820;23.374;2023-04-19T13:05:03;5.18;;;2.30;;
77246;SDS011;66279;42.820;23.374;2023-04-19T13:07:29;4.38;;;2.53;;
77246;SDS011;66279;42.820;23.374;2023-04-19T13:09:55;5.38;;;2.97;;
77246;SDS011;66279;42.820;23.374;2023-04-19T13:12:21;6.95;;;2.47;;
77246;SDS011;66279;42.820;23.374;2023-04-19T13:14:48;4.75;;;2.80;;
77246;SDS011;66279;42.820;23.374;2023-04-19T13:17:15;6.18;;;2.85;;
77246;SDS011;66279;42.820;23.374;2023-04-19T13:19:41;3.33;;;2.05;;
77246;SDS011;66279;42.820;23.374;2023-04-19T13:22:07;4.95;;;2.47;;
77246;SDS011;66279;42.820;23.374;2023-04-19T13:24:32;4.45;;;3.00;;
77246;SDS011;66279;42.820;23.374;2023-04-19T13:26:58;4.70;;;2.72;;
77246;SDS011;66279;42.820;23.374;2023-04-19T13:29:23;5.25;;;2.75;;
77246;SDS011;66279;42.820;23.374;2023-04-19T13:31:49;4.32;;;2.22;;
77246;SDS011;66279;42.820;23.374;2023-04-19T13:34:15;2.80;;;1.60;;
77246;SDS011;66279;42.820;23.374;2023-04-19T13:36:40;4.05;;;2.00;;
77246;SDS011;66279;42.820;23.374;2023-04-19T13:39:06;5.32;;;2.28;;
77246;SDS011;66279;42.820;23.374;2023-04-19T13:41:31;36.95;;;11.05;;
77246;SDS011;66279;42.820;23.374;2023-04-19T13:43:57;23.63;;;8.55;;
77246;SDS011;66279;42.820;23.374;2023-04-19T13:46:22;15.77;;;8.75;;
77246;SDS011;66279;42.820;23.374;2023-04-19T13:48:48;14.70;;;6.65;;
77246;SDS011;66279;42.820;23.374;2023-04-19T13:51:13;5.72;;;2.28;;
77246;SDS011;66279;42.820;23.374;2023-04-19T13:53:39;16.83;;;6.90;;
77246;SDS011;66279;42.820;23.374;2023-04-19T13:56:05;17.60;;;9.18;;
77246;SDS011;66279;42.820;23.374;2023-04-19T13:58:33;2.38;;;1.30;;
77246;SDS011;66279;42.820;23.374;2023-04-19T14:01:00;16.88;;;7.53;;
77246;SDS011;66279;42.820;23.374;2023-04-19T14:03:25;4.03;;;2.00;;
77246;SDS011;66279;42.820;23.374;2023-04-19T14:05:51;4.00;;;1.73;;
77246;SDS011;66279;42.820;23.374;2023-04-19T14:08:16;7.45;;;2.92;;
77246;SDS011;66279;42.820;23.374;2023-04-19T14:10:42;3.42;;;1.55;;
77246;SDS011;66279;42.820;23.374;2023-04-19T14:13:07;2.10;;;1.45;;
77246;SDS011;66279;42.820;23.374;2023-04-19T14:15:33;4.47;;;2.13;;
77246;SDS011;66279;42.820;23.374;2023-04-19T14:17:58;8.25;;;4.28;;
77246;SDS011;66279;42.820;23.374;2023-04-19T14:20:24;3.90;;;2.25;;
77246;SDS011;66279;42.820;23.374;2023-04-19T14:22:50;3.55;;;1.75;;
77246;SDS011;66279;42.820;23.374;2023-04-19T14:25:15;2.30;;;1.45;;
77246;SDS011;66279;42.820;23.374;2023-04-19T14:27:42;3.92;;;2.00;;
77246;SDS011;66279;42.820;23.374;2023-04-19T14:30:08;4.57;;;2.75;;
77246;SDS011;66279;42.820;23.374;2023-04-19T14:32:34;3.55;;;2.00;;
77246;SDS011;66279;42.820;23.374;2023-04-19T14:35:00;12.43;;;3.30;;
77246;SDS011;66279;42.820;23.374;2023-04-19T14:37:26;9.30;;;3.10;;
77246;SDS011;66279;42.820;23.374;2023-04-19T14:39:52;4.00;;;1.65;;
77246;SDS011;66279;42.820;23.374;2023-04-19T14:42:18;3.00;;;1.30;;
77246;SDS011;66279;42.820;23.374;2023-04-19T14:44:43;2.13;;;1.15;;
77246;SDS011;66279;42.820;23.374;2023-04-19T14:47:10;1.42;;;1.00;;
77246;SDS011;66279;42.820;23.374;2023-04-19T14:49:36;3.00;;;1.45;;
77246;SDS011;66279;42.820;23.374;2023-04-19T14:52:02;2.63;;;1.67;;
77246;SDS011;66279;42.820;23.374;2023-04-19T14:54:28;2.05;;;1.33;;
77246;SDS011;66279;42.820;23.374;2023-04-19T14:56:54;9.00;;;2.90;;
77246;SDS011;66279;42.820;23.374;2023-04-19T14:59:19;3.58;;;2.00;;
77246;SDS011;66279;42.820;23.374;2023-04-19T15:01:45;3.65;;;1.88;;
77246;SDS011;66279;42.820;23.374;2023-04-19T15:04:11;2.58;;;1.42;;
77246;SDS011;66279;42.820;23.374;2023-04-19T15:06:36;2.17;;;1.52;;
77246;SDS011;66279;42.820;23.374;2023-04-19T15:09:02;9.30;;;2.95;;
77246;SDS011;66279;42.820;23.374;2023-04-19T15:11:27;3.55;;;1.48;;
77246;SDS011;66279;42.820;23.374;2023-04-19T15:13:53;3.55;;;2.88;;
77246;SDS011;66279;42.820;23.374;2023-04-19T15:16:19;11.75;;;3.88;;
77246;SDS011;66279;42.820;23.374;2023-04-19T15:18:44;5.97;;;2.90;;
77246;SDS011;66279;42.820;23.374;2023-04-19T15:21:10;9.40;;;3.03;;
77246;SDS011;66279;42.820;23.374;2023-04-19T15:23:35;61.65;;;26.00;;
77246;SDS011;66279;42.820;23.374;2023-04-19T15:26:01;7.22;;;3.83;;
77246;SDS011;66279;42.820;23.374;2023-04-19T15:28:27;6.85;;;3.55;;
77246;SDS011;66279;42.820;23.374;2023-04-19T15:30:56;5.93;;;2.53;;
77246;SDS011;66279;42.820;23.374;2023-04-19T15:33:26;5.55;;;2.20;;
77246;SDS011;66279;42.820;23.374;2023-04-19T15:35:52;7.25;;;3.10;;
77246;SDS011;66279;42.820;23.374;2023-04-19T15:38:22;5.80;;;3.03;;
77246;SDS011;66279;42.820;23.374;2023-04-19T15:40:48;6.82;;;3.45;;
77246;SDS011;66279;42.820;23.374;2023-04-19T15:43:14;8.50;;;4.20;;
77246;SDS011;66279;42.820;23.374;2023-04-19T15:45:39;9.85;;;5.28;;
77246;SDS011;66279;42.820;23.374;2023-04-19T15:48:05;11.60;;;5.70;;
77246;SDS011;66279;42.820;23.374;2023-04-19T15:50:31;16.10;;;7.78;;
77246;SDS011;66279;42.820;23.374;2023-04-19T15:52:57;49.58;;;18.67;;
77246;SDS011;66279;42.820;23.374;2023-04-19T15:55:23;34.75;;;14.63;;
77246;SDS011;66279;42.820;23.374;2023-04-19T15:57:48;55.83;;;25.95;;
77246;SDS011;66279;42.820;23.374;2023-04-19T16:00:14;24.48;;;13.60;;
77246;SDS011;66279;42.820;23.374;2023-04-19T16:02:41;21.13;;;12.90;;
77246;SDS011;66279;42.820;23.374;2023-04-19T16:05:06;27.73;;;14.35;;
77246;SDS011;66279;42.820;23.374;2023-04-19T16:07:32;41.00;;;15.02;;
77246;SDS011;66279;42.820;23.374;2023-04-19T16:09:58;41.15;;;20.50;;
77246;SDS011;66279;42.820;23.374;2023-04-19T16:12:23;41.10;;;19.45;;
77246;SDS011;66279;42.820;23.374;2023-04-19T16:14:49;31.60;;;16.35;;
77246;SDS011;66279;42.820;23.374;2023-04-19T16:17:16;51.10;;;23.75;;
77246;SDS011;66279;42.820;23.374;2023-04-19T16:19:41;50.25;;;23.20;;
77246;SDS011;66279;42.820;23.374;2023-04-19T16:22:07;68.03;;;26.25;;
77246;SDS011;66279;42.820;23.374;2023-04-19T16:24:33;66.70;;;28.17;;
77246;SDS011;66279;42.820;23.374;2023-04-19T16:26:58;26.05;;;13.93;;
77246;SDS011;66279;42.820;23.374;2023-04-19T16:29:24;17.48;;;8.93;;
77246;SDS011;66279;42.820;23.374;2023-04-19T16:31:49;24.42;;;10.93;;
77246;SDS011;66279;42.820;23.374;2023-04-19T16:34:15;42.22;;;17.67;;
77246;SDS011;66279;42.820;23.374;2023-04-19T16:36:41;14.95;;;7.72;;
77246;SDS011;66279;42.820;23.374;2023-04-19T16:39:09;9.65;;;6.25;;
77246;SDS011;66279;42.820;23.374;2023-04-19T16:41:35;16.80;;;7.22;;
77246;SDS011;66279;42.820;23.374;2023-04-19T16:44:01;13.07;;;6.93;;
77246;SDS011;66279;42.820;23.374;2023-04-19T16:46:26;15.15;;;7.35;;
77246;SDS011;66279;42.820;23.374;2023-04-19T16:48:52;13.55;;;7.43;;
77246;SDS011;66279;42.820;23.374;2023-04-19T16:51:18;13.65;;;7.57;;
77246;SDS011;66279;42.820;23.374;2023-04-19T16:53:44;12.65;;;7.30;;
77246;SDS011;66279;42.820;23.374;2023-04-19T16:56:12;9.88;;;5.97;;
77246;SDS011;66279;42.820;23.374;2023-04-19T16:58:40;9.40;;;6.80;;
77246;SDS011;66279;42.820;23.374;2023-04-19T17:01:06;16.80;;;9.60;;
77246;SDS011;66279;42.820;23.374;2023-04-19T17:03:33;12.77;;;7.10;;
77246;SDS011;66279;42.820;23.374;2023-04-19T17:05:59;12.55;;;7.53;;
77246;SDS011;66279;42.820;23.374;2023-04-19T17:08:25;14.13;;;6.70;;
77246;SDS011;66279;42.820;23.374;2023-04-19T17:10:50;12.32;;;6.40;;
77246;SDS011;66279;42.820;23.374;2023-04-19T17:13:16;11.40;;;7.47;;
77246;SDS011;66279;42.820;23.374;2023-04-19T17:15:41;12.90;;;6.28;;
77246;SDS011;66279;42.820;23.374;2023-04-19T17:18:07;9.90;;;6.88;;
77246;SDS011;66279;42.820;23.374;2023-04-19T17:20:33;12.35;;;6.50;;
77246;SDS011;66279;42.820;23.374;2023-04-19T17:22:58;103.60;;;47.83;;
77246;SDS011;66279;42.820;23.374;2023-04-19T17:25:24;71.80;;;37.42;;
77246;SDS011;66279;42.820;23.374;2023-04-19T17:27:49;62.33;;;30.23;;
77246;SDS011;66279;42.820;23.374;2023-04-19T17:30:15;67.38;;;35.67;;
77246;SDS011;66279;42.820;23.374;2023-04-19T17:32:41;118.47;;;40.53;;
77246;SDS011;66279;42.820;23.374;2023-04-19T17:35:06;248.57;;;79.45;;
77246;SDS011;66279;42.820;23.374;2023-04-19T17:37:32;74.57;;;30.52;;
77246;SDS011;66279;42.820;23.374;2023-04-19T17:39:58;70.35;;;30.92;;
77246;SDS011;66279;42.820;23.374;2023-04-19T17:42:24;39.15;;;17.88;;
77246;SDS011;66279;42.820;23.374;2023-04-19T17:44:50;23.50;;;12.13;;
77246;SDS011;66279;42.820;23.374;2023-04-19T17:47:17;40.22;;;21.67;;
77246;SDS011;66279;42.820;23.374;2023-04-19T17:49:43;35.53;;;17.42;;
77246;SDS011;66279;42.820;23.374;2023-04-19T17:52:10;22.85;;;11.70;;
77246;SDS011;66279;42.820;23.374;2023-04-19T17:54:36;23.23;;;11.65;;
77246;SDS011;66279;42.820;23.374;2023-04-19T17:57:01;21.40;;;11.35;;
77246;SDS011;66279;42.820;23.374;2023-04-19T17:59:29;18.05;;;9.32;;
77246;SDS011;66279;42.820;23.374;2023-04-19T18:01:55;15.50;;;8.15;;
77246;SDS011;66279;42.820;23.374;2023-04-19T18:04:21;36.05;;;15.63;;
77246;SDS011;66279;42.820;23.374;2023-04-19T18:06:47;38.08;;;15.63;;
77246;SDS011;66279;42.820;23.374;2023-04-19T18:09:13;19.10;;;9.55;;
77246;SDS011;66279;42.820;23.374;2023-04-19T18:11:40;18.23;;;10.85;;
77246;SDS011;66279;42.820;23.374;2023-04-19T18:14:06;15.07;;;7.18;;
77246;SDS011;66279;42.820;23.374;2023-04-19T18:16:32;18.05;;;7.72;;
77246;SDS011;66279;42.820;23.374;2023-04-19T18:19:00;14.55;;;7.63;;
77246;SDS011;66279;42.820;23.374;2023-04-19T18:21:26;10.48;;;6.60;;
77246;SDS011;66279;42.820;23.374;2023-04-19T18:24:12;10.80;;;6.55;;
77246;SDS011;66279;42.820;23.374;2023-04-19T18:26:41;12.48;;;6.82;;
77246;SDS011;66279;42.820;23.374;2023-04-19T18:29:08;14.60;;;7.50;;
77246;SDS011;66279;42.820;23.374;2023-04-19T18:31:34;12.10;;;7.10;;
77246;SDS011;66279;42.820;23.374;2023-04-19T18:34:00;12.20;;;7.18;;
77246;SDS011;66279;42.820;23.374;2023-04-19T18:36:26;9.98;;;6.25;;
77246;SDS011;66279;42.820;23.374;2023-04-19T18:38:53;13.45;;;7.82;;
77246;SDS011;66279;42.820;23.374;2023-04-19T18:41:19;11.88;;;6.97;;
77246;SDS011;66279;42.820;23.374;2023-04-19T18:43:45;17.23;;;8.07;;
77246;SDS011;66279;42.820;23.374;2023-04-19T18:46:10;13.30;;;8.50;;
77246;SDS011;66279;42.820;23.374;2023-04-19T18:48:36;14.32;;;8.90;;
77246;SDS011;66279;42.820;23.374;2023-04-19T18:51:01;37.58;;;17.90;;
77246;SDS011;66279;42.820;23.374;2023-04-19T18:53:27;49.60;;;21.75;;
77246;SDS011;66279;42.820;23.374;2023-04-19T18:55:55;15.35;;;8.50;;
77246;SDS011;66279;42.820;23.374;2023-04-19T19:00:52;26.02;;;11.85;;
77246;SDS011;66279;42.820;23.374;2023-04-19T19:03:19;25.05;;;12.60;;
77246;SDS011;66279;42.820;23.374;2023-04-19T19:05:46;29.40;;;16.17;;
77246;SDS011;66279;42.820;23.374;2023-04-19T19:08:12;47.15;;;23.38;;
77246;SDS011;66279;42.820;23.374;2023-04-19T19:10:38;53.05;;;26.70;;
77246;SDS011;66279;42.820;23.374;2023-04-19T19:13:03;36.70;;;19.45;;
77246;SDS011;66279;42.820;23.374;2023-04-19T19:15:29;22.80;;;11.73;;
77246;SDS011;66279;42.820;23.374;2023-04-19T19:17:55;21.10;;;12.85;;
77246;SDS011;66279;42.820;23.374;2023-04-19T19:20:20;25.30;;;13.18;;
77246;SDS011;66279;42.820;23.374;2023-04-19T19:22:46;24.58;;;12.35;;
77246;SDS011;66279;42.820;23.374;2023-04-19T19:25:12;24.45;;;12.00;;
77246;SDS011;66279;42.820;23.374;2023-04-19T19:27:38;20.83;;;11.05;;
77246;SDS011;66279;42.820;23.374;2023-04-19T19:30:04;22.10;;;11.63;;
77246;SDS011;66279;42.820;23.374;2023-04-19T19:32:31;24.83;;;12.00;;
77246;SDS011;66279;42.820;23.374;2023-04-19T19:34:57;27.23;;;11.77;;
77246;SDS011;66279;42.820;23.374;2023-04-19T19:37:23;26.02;;;12.57;;
77246;SDS011;66279;42.820;23.374;2023-04-19T19:39:50;20.42;;;10.15;;
77246;SDS011;66279;42.820;23.374;2023-04-19T19:42:15;15.95;;;9.43;;
77246;SDS011;66279;42.820;23.374;2023-04-19T19:44:41;18.63;;;8.48;;
77246;SDS011;66279;42.820;23.374;2023-04-19T19:47:07;14.75;;;8.57;;
77246;SDS011;66279;42.820;23.374;2023-04-19T19:49:32;14.48;;;7.80;;
77246;SDS011;66279;42.820;23.374;2023-04-19T19:51:58;17.50;;;8.15;;
77246;SDS011;66279;42.820;23.374;2023-04-19T19:54:23;12.82;;;8.57;;
77246;SDS011;66279;42.820;23.374;2023-04-19T19:56:49;23.65;;;13.38;;
77246;SDS011;66279;42.820;23.374;2023-04-19T19:59:15;17.85;;;10.10;;
77246;SDS011;66279;42.820;23.374;2023-04-19T20:01:40;15.73;;;8.50;;
77246;SDS011;66279;42.820;23.374;2023-04-19T20:04:06;18.65;;;9.70;;
77246;SDS011;66279;42.820;23.374;2023-04-19T20:06:32;22.75;;;11.38;;
77246;SDS011;66279;42.820;23.374;2023-04-19T20:08:58;17.73;;;10.23;;
77246;SDS011;66279;42.820;23.374;2023-04-19T20:11:23;21.23;;;10.77;;
77246;SDS011;66279;42.820;23.374;2023-04-19T20:13:49;21.30;;;10.63;;
77246;SDS011;66279;42.820;23.374;2023-04-19T20:16:15;25.35;;;12.48;;
77246;SDS011;66279;42.820;23.374;2023-04-19T20:18:42;18.35;;;10.23;;
77246;SDS011;66279;42.820;23.374;2023-04-19T20:21:10;17.35;;;9.32;;
77246;SDS011;66279;42.820;23.374;2023-04-19T20:23:39;18.30;;;9.43;;
77246;SDS011;66279;42.820;23.374;2023-04-19T20:26:05;23.13;;;10.40;;
77246;SDS011;66279;42.820;23.374;2023-04-19T20:28:30;19.52;;;10.23;;
77246;SDS011;66279;42.820;23.374;2023-04-19T20:30:57;21.63;;;10.57;;
77246;SDS011;66279;42.820;23.374;2023-04-19T20:33:22;18.08;;;9.32;;
77246;SDS011;66279;42.820;23.374;2023-04-19T20:35:48;17.70;;;8.93;;
77246;SDS011;66279;42.820;23.374;2023-04-19T20:38:13;17.35;;;8.93;;
77246;SDS011;66279;42.820;23.374;2023-04-19T20:40:40;14.40;;;8.45;;
77246;SDS011;66279;42.820;23.374;2023-04-19T20:43:05;19.65;;;9.73;;
77246;SDS011;66279;42.820;23.374;2023-04-19T20:45:32;18.45;;;9.05;;
77246;SDS011;66279;42.820;23.374;2023-04-19T20:47:58;16.40;;;8.82;;
77246;SDS011;66279;42.820;23.374;2023-04-19T20:50:23;21.13;;;10.30;;
77246;SDS011;66279;42.820;23.374;2023-04-19T20:52:49;16.08;;;8.70;;
77246;SDS011;66279;42.820;23.374;2023-04-19T20:55:15;20.30;;;9.10;;
77246;SDS011;66279;42.820;23.374;2023-04-19T20:57:41;17.40;;;9.65;;
77246;SDS011;66279;42.820;23.374;2023-04-19T21:00:06;23.88;;;12.38;;
77246;SDS011;66279;42.820;23.374;2023-04-19T21:02:34;26.00;;;14.82;;
77246;SDS011;66279;42.820;23.374;2023-04-19T21:04:59;19.05;;;11.52;;
77246;SDS011;66279;42.820;23.374;2023-04-19T21:07:25;22.70;;;11.30;;
77246;SDS011;66279;42.820;23.374;2023-04-19T21:09:50;19.55;;;10.40;;
77246;SDS011;66279;42.820;23.374;2023-04-19T21:12:16;26.55;;;13.00;;
77246;SDS011;66279;42.820;23.374;2023-04-19T21:14:41;25.10;;;12.30;;
77246;SDS011;66279;42.820;23.374;2023-04-19T21:17:09;38.72;;;16.73;;
77246;SDS011;66279;42.820;23.374;2023-04-19T21:19:36;27.38;;;13.38;;
77246;SDS011;66279;42.820;23.374;2023-04-19T21:22:02;20.98;;;10.90;;
77246;SDS011;66279;42.820;23.374;2023-04-19T21:24:27;21.40;;;11.15;;
77246;SDS011;66279;42.820;23.374;2023-04-19T21:26:53;19.83;;;10.70;;
77246;SDS011;66279;42.820;23.374;2023-04-19T21:29:19;23.45;;;11.15;;
77246;SDS011;66279;42.820;23.374;2023-04-19T21:31:45;14.95;;;9.18;;
77246;SDS011;66279;42.820;23.374;2023-04-19T21:34:10;19.00;;;10.35;;
77246;SDS011;66279;42.820;23.374;2023-04-19T21:36:36;20.88;;;10.30;;
77246;SDS011;66279;42.820;23.374;2023-04-19T21:39:01;23.00;;;10.68;;
77246;SDS011;66279;42.820;23.374;2023-04-19T21:41:28;23.65;;;10.27;;
77246;SDS011;66279;42.820;23.374;2023-04-19T21:43:53;18.65;;;9.32;;
77246;SDS011;66279;42.820;23.374;2023-04-19T21:46:19;20.13;;;9.70;;
77246;SDS011;66279;42.820;23.374;2023-04-19T21:48:44;15.45;;;8.13;;
77246;SDS011;66279;42.820;23.374;2023-04-19T21:51:11;15.35;;;9.40;;
77246;SDS011;66279;42.820;23.374;2023-04-19T21:53:37;19.02;;;8.90;;
77246;SDS011;66279;42.820;23.374;2023-04-19T21:56:02;16.08;;;8.90;;
77246;SDS011;66279;42.820;23.374;2023-04-19T21:58:28;20.77;;;9.57;;
77246;SDS011;66279;42.820;23.374;2023-04-19T22:00:54;17.48;;;7.85;;
77246;SDS011;66279;42.820;23.374;2023-04-19T22:03:19;17.42;;;8.95;;
77246;SDS011;66279;42.820;23.374;2023-04-19T22:05:45;15.85;;;8.13;;
77246;SDS011;66279;42.820;23.374;2023-04-19T22:08:11;17.80;;;9.25;;
77246;SDS011;66279;42.820;23.374;2023-04-19T22:10:37;18.95;;;8.77;;
77246;SDS011;66279;42.820;23.374;2023-04-19T22:13:03;15.98;;;8.23;;
77246;SDS011;66279;42.820;23.374;2023-04-19T22:15:29;17.13;;;9.50;;
77246;SDS011;66279;42.820;23.374;2023-04-19T22:17:55;17.48;;;9.85;;
77246;SDS011;66279;42.820;23.374;2023-04-19T22:20:22;21.02;;;11.48;;
77246;SDS011;66279;42.820;23.374;2023-04-19T22:22:50;19.73;;;9.15;;
77246;SDS011;66279;42.820;23.374;2023-04-19T22:25:15;19.65;;;10.32;;
77246;SDS011;66279;42.820;23.374;2023-04-19T22:27:41;23.15;;;11.35;;
77246;SDS011;66279;42.820;23.374;2023-04-19T22:30:07;21.75;;;10.90;;
77246;SDS011;66279;42.820;23.374;2023-04-19T22:32:33;22.73;;;10.45;;
77246;SDS011;66279;42.820;23.374;2023-04-19T22:34:58;20.42;;;10.35;;
77246;SDS011;66279;42.820;23.374;2023-04-19T22:37:24;18.92;;;10.48;;
77246;SDS011;66279;42.820;23.374;2023-04-19T22:39:50;21.98;;;11.07;;